Latest Coastal Weather Observations for Cape Willoughby

IDS60701

Issued at 9:21 am CST Friday 29 April 2016 (issued every 10 minutes, with the page automatically refreshed every 10 minutes)

About coastal observations | Map of coastal stations | Coastal observations for SA | Marine services | Other Formats
Station Details ID: 022803 Name: CAPE WILLOUGHBY Lat: -35.84 Lon: 138.13 Height: 55.0 m
Data from the previous 72 hours. | See also: Recent months at Cape Willoughby
Date/Time
CST
Temp

°C
Wind Pressure Rain
since 9am
mm
Weather Cloud Vis
km
Sea
Height
m
Swell
Dir
 
Speed
knots
Gust
knots
hPa Trend Height
m
Period
s
Dir
29/09:00am 15.6 NNW 21 26 1011.6 - 7.4 Recent precip. - - - - - -
29/08:30am 15.2 NNW 18 25 1011.8 - 7.4 - - - - - - -
29/08:00am 15.0 NNW 14 19 1011.9 - 7.2 - - - - - - -
29/07:30am 14.6 NNW 13 17 1011.7 - 7.0 - - - - - - -
29/07:00am 14.3 NW 10 13 1011.7 - 6.4 - - - - - - -
29/06:30am 14.3 NW 9 12 1011.6 - 5.4 - - - - - - -
29/06:00am 14.7 NW 9 14 1011.6 - 4.4 Rain - - - - - -
29/05:30am 16.1 NW 8 11 1011.6 - 3.6 - - - - - - -
29/05:00am 16.2 WNW 10 13 1010.9 - 3.6 - - - - - - -
29/04:30am 16.8 NW 14 19 1011.1 - 3.6 - - - - - - -
29/04:00am 16.8 NW 9 12 1011.0 - 3.6 - - - - - - -
29/03:30am 17.1 WNW 16 21 1010.8 - 3.6 - - - - - - -
29/03:00am 17.7 WNW 16 22 1010.9 - 3.6 Rain - - - - - -
29/02:30am 18.4 NW 14 18 1010.9 - 3.4 - - - - - - -
29/02:00am 19.8 NNW 21 29 1010.3 - 3.0 - - - - - - -
29/01:30am 20.3 NNW 23 34 1009.9 - 3.0 - - - - - - -
29/01:21am 20.7 NNW 32 45 1009.7 - 3.0 - - - - - - -
29/01:17am 21.2 NNW 37 47 1009.5 - 3.0 - - - - - - -
29/01:00am 21.4 N 34 41 1008.2 - 3.0 - - - - - - -
29/12:30am 20.5 N 34 41 1008.3 - 3.0 - - - - - - -
29/12:00am 21.6 N 30 47 1008.4 - 3.0 Recent precip. - - - - - -
 
Date/Time
CST
Temp

°C
Wind Pressure Rain
since 9am
mm
Weather Cloud Vis
km
Sea
Height
m
Swell
Dir
 
Speed
knots
Gust
knots
hPa Trend Height
m
Period
s
Dir
28/11:57pm 21.1 N 23 45 1008.7 - 3.0 - - - - - - -
28/11:56pm 21.1 N 21 33 1008.8 - 3.0 - - - - - - -
28/11:50pm 19.6 NNE 13 23 1008.9 - 3.0 - - - - - - -
28/11:30pm 18.9 NE 8 11 1009.1 - 3.0 - - - - - - -
28/11:00pm 20.3 N 4 11 1010.0 - 2.6 - - - - - - -
28/10:30pm 19.5 NE 17 20 1009.6 - 2.6 - - - - - - -
28/10:00pm 18.4 NNE 11 15 1010.2 - 2.6 - - - - - - -
28/09:30pm 18.1 NNE 9 12 1011.0 - 2.6 - - - - - - -
28/09:00pm 17.9 NE 17 19 1010.9 - 2.6 Recent precip. - - - - - -
28/08:30pm 17.6 NE 15 18 1011.1 - 2.6 - - - - - - -
28/08:00pm 17.3 ENE 19 23 1011.6 - 2.4 - - - - - - -
28/07:30pm 17.1 NE 14 17 1012.6 - 2.2 - - - - - - -
28/07:00pm 16.9 NE 13 16 1012.3 - 2.2 - - - - - - -
28/06:30pm 16.8 NE 10 12 1012.7 - 2.2 - - - - - - -
28/06:00pm 16.6 ENE 11 14 1012.7 - 2.2 Recent precip. - - - - - -
28/05:30pm 16.6 ENE 7 9 1012.6 - 2.0 - - - - - - -
28/05:00pm 16.5 E 9 11 1012.8 - 1.8 - - - - - - -
28/04:30pm 16.1 E 9 14 1013.3 - 1.8 - - - - - - -
28/04:00pm 16.2 E 9 12 1013.7 - 1.4 - - - - - - -
28/03:30pm 16.3 E 5 7 1014.2 - 1.2 - - - - - - -
28/03:00pm 16.4 ESE 4 5 1014.1 - 1.0 Recent precip. - - - - - -
28/02:30pm 17.1 E 5 6 1014.1 - 0.8 - - - - - - -
28/02:00pm 17.0 E 7 8 1014.2 - 0.8 - - - - - - -
28/01:30pm 17.4 SE 4 5 1015.2 - 0.8 - - - - - - -
28/01:00pm 16.9 E 4 5 1015.6 - 0.8 - - - - - - -
28/12:30pm 16.5 NNE 3 4 1016.3 - 0.8 - - - - - - -
28/12:00pm 15.9 NNE 5 6 1016.2 - 0.8 Rain - - - - - -
28/11:30am 17.1 N 5 6 1017.4 - 0.0 - - - - - - -
28/11:00am 17.2 N 1 4 1018.0 - 0.0 - - - - - - -
28/10:30am 17.6 NE 3 4 1017.8 - 0.0 - - - - - - -
28/10:00am 17.4 SSE 2 3 1017.8 - 0.0 - - - - - - -
28/09:30am 17.4 SW 2 3 1018.2 - 0.0 - - - - - - -
28/09:00am 16.6 W 3 5 1017.9 - - - - - - - - -
28/08:30am 16.2 WNW 4 6 1018.1 - - - - - - - - -
28/08:00am 15.8 WNW 5 7 1017.6 - - - - - - - - -
28/07:30am 15.5 WNW 6 7 1017.3 - - - - - - - - -
28/07:00am 15.3 WNW 7 8 1016.8 - - - - - - - - -
28/06:30am 15.4 NW 5 6 1016.4 - - - - - - - - -
28/06:00am 15.5 NW 5 5 1016.4 - - Recent precip. - - - - - -
28/05:30am 15.5 WNW 7 8 1016.4 - - - - - - - - -
28/05:00am 15.6 NW 5 6 1016.3 - - - - - - - - -
28/04:30am 15.6 NNW 4 4 1016.2 - - - - - - - - -
28/04:00am 15.6 NNW 4 5 1016.2 - - - - - - - - -
28/03:30am 15.6 WNW 5 5 1015.9 - - - - - - - - -
28/03:00am 15.7 WSW 4 5 1016.1 - 0.4 - - - - - - -
28/02:30am 15.7 SW 4 5 1016.0 - - - - - - - - -
28/02:00am 15.9 WSW 6 8 1015.8 - - - - - - - - -
28/01:30am 16.2 SW 11 15 1015.9 - - - - - - - - -
28/01:00am 16.4 SW 7 9 1015.5 - - - - - - - - -
28/12:30am 16.5 SW 9 12 1015.1 - - - - - - - - -
28/12:00am 16.8 SW 13 16 1014.6 - - Rain - - - - - -
 
Date/Time
CST
Temp

°C
Wind Pressure Rain
since 9am
mm
Weather Cloud Vis
km
Sea
Height
m
Swell
Dir
 
Speed
knots
Gust
knots
hPa Trend Height
m
Period
s
Dir
27/11:30pm 17.1 WSW 12 15 1014.6 - - - - - - - - -
27/11:00pm 17.2 WSW 8 11 1014.5 - - - - - - - - -
27/10:30pm 17.1 WSW 5 7 1014.5 - - - - - - - - -
27/10:00pm 17.5 SW 6 10 1014.5 - - - - - - - - -
27/09:30pm 17.5 SW 7 9 1013.8 - - - - - - - - -
27/09:00pm 17.4 SW 10 11 1013.5 - 0.0 - - - - - - -
27/08:30pm 17.6 SW 8 10 1013.4 - - - - - - - - -
27/08:00pm 18.2 WSW 10 12 1013.8 - - - - - - - - -
27/07:30pm 18.2 SW 10 12 1012.9 - - - - - - - - -
27/07:00pm 18.0 SW 9 10 1012.8 - - - - - - - - -
27/06:30pm 18.3 SW 9 10 1012.6 - - - - - - - - -
27/06:00pm 18.9 SW 10 11 1012.4 - - - - - - - - -
27/05:30pm 20.9 NW 8 9 1012.2 - - - - - - - - -
27/05:00pm 21.3 NNW 10 13 1011.7 - - - - - - - - -
27/04:30pm 21.9 NNW 10 12 1011.3 - - - - - - - - -
27/04:00pm 21.9 NNW 13 16 1011.1 - - - - - - - - -
27/03:30pm 21.8 NNW 17 22 1011.0 - - - - - - - - -
27/03:00pm 21.8 NNW 18 23 1011.0 - - - - - - - - -
27/02:30pm 21.9 NNW 16 24 1010.8 - - - - - - - - -
27/02:00pm 21.3 NNW 14 17 1010.9 - - - - - - - - -
27/01:30pm 21.6 NNW 12 15 1011.1 - - - - - - - - -
27/01:00pm 21.9 NNW 14 20 1011.1 - - - - - - - - -
27/12:30pm 21.4 NNW 16 20 1011.3 - - - - - - - - -
27/12:00pm 21.5 NNW 18 21 1011.6 - 0.0 - - - - - - -
27/11:30am 21.9 NNW 21 26 1011.9 - 0.0 - - - - - - -
27/11:00am 21.1 NNW 21 26 1011.9 - 0.0 - - - - - - -
27/10:30am 21.1 NNW 20 25 1012.2 - 0.0 - - - - - - -
27/10:00am 21.2 NNW 23 27 1012.4 - 0.0 - - - - - - -
27/09:30am 21.3 NNW 25 29 1012.6 - 0.0 - - - - - - -
27/09:00am 21.7 N 26 33 1012.7 - 0.0 - - - - - - -
27/08:30am 22.6 N 27 34 1012.5 - 0.0 - - - - - - -
27/08:00am 21.9 NNW 29 35 1011.9 - 0.0 - - - - - - -
27/07:30am 21.3 N 23 27 1011.8 - 0.0 - - - - - - -
27/07:00am 20.5 N 20 23 1011.9 - 0.0 - - - - - - -
27/06:30am 20.7 N 20 24 1011.9 - 0.0 - - - - - - -
27/06:00am 20.4 N 23 26 1011.9 - 0.0 - - - - - - -
27/05:30am 20.7 N 26 31 1011.7 - 0.0 - - - - - - -
27/05:00am 21.2 N 31 35 1011.2 - 0.0 - - - - - - -
27/04:30am 21.3 N 32 38 1010.6 - 0.0 - - - - - - -
27/04:00am 21.6 N 31 37 1010.5 - 0.0 - - - - - - -
27/03:30am 21.4 N 32 36 1010.8 - 0.0 - - - - - - -
27/03:00am 21.3 N 28 33 1011.1 - 0.0 - - - - - - -
27/02:30am 21.0 N 29 34 1011.6 - 0.0 - - - - - - -
27/02:00am 21.4 N 31 36 1011.9 - 0.0 - - - - - - -
27/01:30am 21.4 N 27 31 1012.2 - 0.0 - - - - - - -
27/01:00am 21.1 N 26 30 1012.7 - 0.0 - - - - - - -
27/12:30am 20.9 N 24 27 1013.1 - 0.0 - - - - - - -
27/12:00am 21.1 N 24 26 1013.4 - 0.0 - - - - - - -
 
Date/Time
CST
Temp

°C
Wind Pressure Rain
since 9am
mm
Weather Cloud Vis
km
Sea
Height
m
Swell
Dir
 
Speed
knots
Gust
knots
hPa Trend Height
m
Period
s
Dir
26/11:30pm 20.9 N 18 23 1013.9 - 0.0 - - - - - - -
26/11:00pm 19.3 N 12 14 1014.3 - 0.0 - - - - - - -
26/10:30pm 19.7 NNE 14 16 1014.5 - 0.0 - - - - - - -
26/10:00pm 19.8 N 14 16 1014.9 - 0.0 - - - - - - -
26/09:30pm 19.6 N 12 15 1015.2 - 0.0 - - - - - - -
26/09:00pm 21.6 N 12 17 1015.5 - 0.0 - - - - - - -
26/08:30pm 20.1 N 6 8 1016.0 - 0.0 - - - - - - -
26/08:00pm 20.0 N 7 7 1016.3 - 0.0 - - - - - - -
26/07:30pm 20.4 N 10 14 1016.5 - 0.0 - - - - - - -
26/07:00pm 19.2 N 9 11 1016.5 - 0.0 - - - - - - -
26/06:30pm 19.5 N 7 10 1016.5 - 0.0 - - - - - - -
26/06:00pm 20.9 NNE 15 17 1016.3 - 0.0 - - - - - - -
26/05:30pm 21.8 NNE 16 17 1016.2 - 0.0 - - - - - - -
26/05:00pm 22.0 NNE 17 18 1016.3 - 0.0 - - - - - - -
26/04:30pm 22.2 N 18 19 1016.4 - 0.0 - - - - - - -
26/04:00pm 22.2 N 16 19 1016.5 - 0.0 - - - - - - -
26/03:30pm 22.6 N 18 20 1016.7 - 0.0 - - - - - - -
26/03:00pm 23.3 N 18 19 1016.9 - 0.0 - - - - - - -
26/02:30pm 22.7 N 10 13 1017.4 - 0.0 - - - - - - -
26/02:00pm 23.0 N 9 10 1017.9 - 0.0 - - - - - - -
26/01:30pm 24.6 N 8 10 1018.5 - 0.0 - - - - - - -
26/01:00pm 24.6 N 11 13 1019.0 - 0.0 - - - - - - -
26/12:30pm 24.9 N 13 15 1019.6 - 0.0 - - - - - - -
26/12:00pm 23.9 N 12 16 1020.3 - 0.0 - - - - - - -
26/11:30am 24.6 N 12 15 1020.6 - 0.0 - - - - - - -
26/11:00am 24.0 NNW 15 19 1020.9 - 0.0 - - - - - - -
26/10:30am 24.4 NNW 16 20 1021.1 - 0.0 - - - - - - -
26/10:00am 24.0 N 16 19 1021.3 - 0.0 - - - - - - -
26/09:30am 23.4 N 16 19 1021.6 - 0.0 - - - - - - -

Other Formats:

Comma delimited format used in spreadsheet applications
http://www.bom.gov.au/fwo/IDS60701/IDS60701.94822.axf

JavaScript Object Notation format (JSON) in row-major order
http://www.bom.gov.au/fwo/IDS60701/IDS60701.94822.json